Time;durP1;ratioP1;P1;durP2;ratioP2;P2;SDS_P1;SDS_P2;PMS_P1;PMS_P2;Temp;Humidity;BMP_temperature;BMP_pressure;BME280_temperature;BME280_humidity;BME280_pressure;Samples;Min_cycle;Max_cycle;Signal;HPM_P1;HPM_P2
2021/12/23 00:00:58;;;;;;;;;3.00;2.33;;;;;-146.25;100.00;57879.81;5078347;27;45989;-73
2021/12/23 00:03:24;;;;;;;;;4.33;4.00;;;;;-146.25;100.00;57879.81;5078722;27;45387;-77
2021/12/23 00:05:52;;;;;;;;;4.33;3.00;;;;;-146.25;100.00;57879.81;5077114;28;45467;-76
2021/12/23 00:08:18;;;;;;;;;3.33;2.67;;;;;-146.25;100.00;57879.81;5078544;27;45425;-76
2021/12/23 00:10:44;;;;;;;;;2.67;2.00;;;;;-146.25;100.00;57879.81;5078648;27;45957;-76
2021/12/23 00:13:09;;;;;;;;;4.00;3.00;;;;;-146.25;100.00;57879.81;5078554;27;45391;-74
2021/12/23 00:16:00;;;;;;;;;3.00;3.00;;;;;-146.25;100.00;57879.81;5078373;27;45554;-75
2021/12/23 00:23:52;;;;;;;;;8.00;7.00;;;;;-146.25;100.00;57879.81;5077814;28;45305;-76
2021/12/23 00:26:18;;;;;;;;;5.00;4.75;;;;;-146.25;100.00;57879.81;5078003;27;45484;-76
2021/12/23 00:28:44;;;;;;;;;7.00;6.00;;;;;-146.25;100.00;57879.81;5078387;27;45495;-73
2021/12/23 00:31:10;;;;;;;;;7.00;5.25;;;;;-146.25;100.00;57879.81;5078033;27;46047;-76
2021/12/23 00:33:36;;;;;;;;;5.75;5.00;;;;;-146.25;100.00;57879.81;5077899;27;45514;-74
2021/12/23 00:36:04;;;;;;;;;6.50;5.50;;;;;-146.25;100.00;57879.81;5078131;27;45583;-76
2021/12/23 00:38:36;;;;;;;;;5.00;4.25;;;;;-146.25;100.00;57879.81;5076761;28;45632;-76
2021/12/23 00:41:03;;;;;;;;;5.75;5.50;;;;;-146.25;100.00;57879.81;5077854;28;46221;-76
2021/12/23 00:43:31;;;;;;;;;5.00;5.00;;;;;-146.25;100.00;57879.81;5077553;28;45484;-76
2021/12/23 00:45:58;;;;;;;;;4.00;4.00;;;;;-146.25;100.00;57879.81;5077840;27;45318;-76
2021/12/23 00:48:24;;;;;;;;;3.00;3.00;;;;;-146.25;100.00;57879.81;5078130;27;45307;-76
2021/12/23 00:50:50;;;;;;;;;4.00;4.00;;;;;-146.25;100.00;57879.81;5077605;28;46170;-76
2021/12/23 00:53:20;;;;;;;;;4.00;4.00;;;;;-146.25;100.00;57879.81;5077624;27;45460;-75
2021/12/23 00:55:53;;;;;;;;;7.67;6.00;;;;;-146.25;100.00;57879.81;5077768;28;45590;-77
2021/12/23 00:58:19;;;;;;;;;6.00;6.00;;;;;-146.25;100.00;57879.81;5076206;28;45370;-76
2021/12/23 01:00:45;;;;;;;;;4.00;3.67;;;;;-146.25;100.00;57879.81;5077089;28;46339;-75
2021/12/23 01:03:11;;;;;;;;;5.50;4.25;;;;;-146.25;100.00;57879.81;5077056;27;45315;-75
2021/12/23 01:05:37;;;;;;;;;7.00;3.50;;;;;-146.25;100.00;57879.81;5077599;27;45299;-76
2021/12/23 01:08:03;;;;;;;;;4.33;4.00;;;;;-146.25;100.00;57879.81;5077751;27;45449;-77
2021/12/23 01:10:29;;;;;;;;;4.00;4.00;;;;;-146.25;100.00;57879.81;5077427;28;45465;-76
2021/12/23 01:13:02;;;;;;;;;4.00;3.00;;;;;-146.25;100.00;57879.81;5078104;28;45865;-76
2021/12/23 01:17:59;;;;;;;;;5.00;4.50;;;;;-146.25;100.00;57879.81;5077890;27;45323;-76
2021/12/23 01:20:31;;;;;;;;;6.75;4.00;;;;;-146.25;100.00;57879.81;5077255;27;45449;-77
2021/12/23 01:23:05;;;;;;;;;5.00;4.25;;;;;-146.25;100.00;57879.81;5075070;28;45448;-74
2021/12/23 01:25:32;;;;;;;;;4.67;4.00;;;;;-146.25;100.00;57879.81;5077177;27;45335;-76
2021/12/23 01:27:58;;;;;;;;;5.00;5.00;;;;;-146.25;100.00;57879.81;5077464;27;45475;-77
2021/12/23 01:30:25;;;;;;;;;3.00;3.00;;;;;-146.25;100.00;57879.81;5076906;27;45436;-76
2021/12/23 01:32:53;;;;;;;;;4.00;4.00;;;;;-146.25;100.00;57879.81;5077066;28;45482;-75
2021/12/23 01:35:19;;;;;;;;;4.75;4.75;;;;;-146.25;100.00;57879.81;5077033;27;45527;-75
2021/12/23 01:37:45;;;;;;;;;4.00;4.00;;;;;-146.25;100.00;57879.81;5077685;27;45512;-76
2021/12/23 01:40:12;;;;;;;;;5.50;4.75;;;;;-146.25;100.00;57879.81;5077009;27;45499;-75
2021/12/23 01:42:39;;;;;;;;;4.00;4.00;;;;;-146.25;100.00;57879.81;5076922;27;45449;-76
2021/12/23 01:45:14;;;;;;;;;3.33;3.00;;;;;-146.25;100.00;57879.81;5076795;27;45470;-76
2021/12/23 01:47:40;;;;;;;;;5.75;4.25;;;;;-146.25;100.00;57879.81;5075404;28;45310;-74
2021/12/23 01:50:07;;;;;;;;;5.67;5.00;;;;;-146.25;100.00;57879.81;5076839;28;46176;-75
2021/12/23 01:52:33;;;;;;;;;6.00;4.50;;;;;-146.25;100.00;57879.81;5074085;28;45408;-75
2021/12/23 01:54:58;;;;;;;;;3.00;3.00;;;;;-146.25;100.00;57879.81;5076622;28;45427;-76
2021/12/23 01:57:26;;;;;;;;;5.75;5.75;;;;;-146.25;100.00;57879.81;5076811;28;45295;-76
2021/12/23 01:59:52;;;;;;;;;5.00;5.00;;;;;-146.25;100.00;57879.81;5075180;28;46324;-76
2021/12/23 02:02:18;;;;;;;;;5.33;5.00;;;;;-146.25;100.00;57879.81;5075122;28;45473;-73
2021/12/23 02:04:43;;;;;;;;;5.00;4.50;;;;;-146.25;100.00;57879.81;5076869;28;45460;-76
2021/12/23 02:07:09;;;;;;;;;5.25;4.75;;;;;-146.25;100.00;57879.81;5076420;27;45437;-76
2021/12/23 02:09:34;;;;;;;;;4.00;4.00;;;;;-146.25;100.00;57879.81;5075231;28;45481;-76
2021/12/23 02:12:00;;;;;;;;;4.00;3.50;;;;;-146.25;100.00;57879.81;5076415;27;45586;-75
2021/12/23 02:14:25;;;;;;;;;4.00;4.00;;;;;-146.25;100.00;57879.81;5076010;28;45772;-76
2021/12/23 02:16:51;;;;;;;;;5.00;4.00;;;;;-146.25;100.00;57879.81;5076588;27;45575;-76
2021/12/23 02:19:18;;;;;;;;;5.00;4.00;;;;;-146.25;100.00;57879.81;5076956;28;46093;-75
2021/12/23 02:21:46;;;;;;;;;4.00;4.00;;;;;-146.25;100.00;57879.81;5078464;27;45550;-76
2021/12/23 02:24:12;;;;;;;;;3.50;3.50;;;;;-146.25;100.00;57879.81;5078316;28;45443;-76
2021/12/23 02:26:39;;;;;;;;;4.00;4.00;;;;;-146.25;100.00;57879.81;5078138;27;45211;-76
2021/12/23 02:29:05;;;;;;;;;4.00;4.00;;;;;-146.25;100.00;57879.81;5077809;27;45663;-76
2021/12/23 02:31:31;;;;;;;;;5.00;4.00;;;;;-146.25;100.00;57879.81;5077809;27;45326;-76
2021/12/23 02:33:57;;;;;;;;;4.75;4.75;;;;;-146.25;100.00;57879.81;5077922;27;45375;-76
2021/12/23 02:36:22;;;;;;;;;5.00;4.25;;;;;-146.25;100.00;57879.81;5078078;28;45342;-77
2021/12/23 02:38:48;;;;;;;;;4.00;4.00;;;;;-146.25;100.00;57879.81;5077467;28;45516;-76
2021/12/23 02:41:14;;;;;;;;;5.00;4.00;;;;;-146.25;100.00;57879.81;5077605;27;45501;-76
2021/12/23 02:43:39;;;;;;;;;6.50;4.00;;;;;-146.25;100.00;57879.81;5077468;28;45389;-76
2021/12/23 02:46:05;;;;;;;;;5.75;3.75;;;;;-146.25;100.00;57879.81;5077652;28;45466;-76
2021/12/23 02:48:37;;;;;;;;;5.25;4.00;;;;;-146.25;100.00;57879.81;5077508;28;45274;-76
2021/12/23 02:51:07;;;;;;;;;6.00;6.00;;;;;-146.25;100.00;57879.81;5077746;28;45317;-75
2021/12/23 02:53:33;;;;;;;;;5.00;4.00;;;;;-146.25;100.00;57879.81;5077531;27;45437;-75
2021/12/23 02:56:01;;;;;;;;;4.00;4.00;;;;;-146.25;100.00;57879.81;5077648;28;45544;-77
2021/12/23 02:58:27;;;;;;;;;3.25;3.25;;;;;-146.25;100.00;57879.81;5077416;27;46089;-76
2021/12/23 03:00:55;;;;;;;;;5.50;4.00;;;;;-146.25;100.00;57879.81;5077294;27;45783;-76
2021/12/23 03:03:21;;;;;;;;;5.00;5.00;;;;;-146.25;100.00;57879.81;5077620;27;45290;-75
2021/12/23 03:05:48;;;;;;;;;5.00;4.00;;;;;-146.25;100.00;57879.81;5077879;27;45191;-76
2021/12/23 03:08:14;;;;;;;;;6.75;5.00;;;;;-146.25;100.00;57879.81;5077302;28;45402;-76
2021/12/23 03:10:39;;;;;;;;;10.25;6.50;;;;;-146.25;100.00;57879.81;5076866;27;45408;-76
2021/12/23 03:13:05;;;;;;;;;9.25;6.00;;;;;-146.25;100.00;57879.81;5077321;28;45337;-76
2021/12/23 03:15:30;;;;;;;;;8.25;8.25;;;;;-146.25;100.00;57879.81;5077612;28;45298;-76
2021/12/23 03:17:56;;;;;;;;;5.75;5.25;;;;;-146.25;100.00;57879.81;5077215;28;45324;-76
2021/12/23 03:20:22;;;;;;;;;6.00;6.00;;;;;-146.25;100.00;57879.81;5077086;28;45441;-76
2021/12/23 03:22:47;;;;;;;;;5.50;5.25;;;;;-146.25;100.00;57879.81;5077628;28;45364;-76
2021/12/23 03:25:13;;;;;;;;;7.25;6.00;;;;;-146.25;100.00;57879.81;5078511;28;45582;-76
2021/12/23 03:27:38;;;;;;;;;7.25;6.75;;;;;-146.25;100.00;57879.81;5080615;28;45953;-76
2021/12/23 03:30:05;;;;;;;;;4.50;4.50;;;;;-146.25;100.00;57879.81;5080808;27;45526;-76
2021/12/23 03:32:31;;;;;;;;;4.50;4.00;;;;;-146.25;100.00;57879.81;5080748;27;45348;-76
2021/12/23 03:34:56;;;;;;;;;5.00;5.00;;;;;-146.25;100.00;57879.81;5080951;27;45305;-76
2021/12/23 03:37:22;;;;;;;;;4.75;4.00;;;;;-146.25;100.00;57879.81;5080686;27;45453;-76
2021/12/23 03:39:51;;;;;;;;;6.00;5.25;;;;;-146.25;100.00;57879.81;5096710;27;45283;-76
2021/12/23 03:42:17;;;;;;;;;5.00;4.00;;;;;-146.25;100.00;57879.81;5080988;27;45380;-76
2021/12/23 03:44:42;;;;;;;;;9.00;7.25;;;;;-146.25;100.00;57879.81;5080310;27;45436;-76
2021/12/23 03:47:08;;;;;;;;;5.50;4.50;;;;;-146.25;100.00;57879.81;5080174;27;45959;-76
2021/12/23 03:49:34;;;;;;;;;3.75;3.25;;;;;-146.25;100.00;57879.81;5080393;27;45444;-76
2021/12/23 03:51:59;;;;;;;;;5.00;4.00;;;;;-146.25;100.00;57879.81;5080437;27;45364;-76
2021/12/23 03:54:25;;;;;;;;;4.50;4.50;;;;;-146.25;100.00;57879.81;5080692;27;45372;-76
2021/12/23 03:56:50;;;;;;;;;4.00;4.00;;;;;-146.25;100.00;57879.81;5080579;27;45394;-76
2021/12/23 03:59:16;;;;;;;;;5.50;4.25;;;;;-146.25;100.00;57879.81;5080151;28;45463;-76
2021/12/23 04:01:42;;;;;;;;;4.50;4.50;;;;;-146.25;100.00;57879.81;5080389;28;45508;-76
2021/12/23 04:04:08;;;;;;;;;4.00;4.00;;;;;-146.25;100.00;57879.81;5080241;27;45384;-76
2021/12/23 04:06:34;;;;;;;;;4.00;3.00;;;;;-146.25;100.00;57879.81;5095372;27;47719;-76
2021/12/23 04:08:59;;;;;;;;;4.75;4.50;;;;;-146.25;100.00;57879.81;5079855;28;45393;-75
2021/12/23 04:11:25;;;;;;;;;3.50;3.50;;;;;-146.25;100.00;57879.81;5079970;27;45451;-76
2021/12/23 04:13:53;;;;;;;;;5.50;4.00;;;;;-146.25;100.00;57879.81;5080594;27;45605;-76
2021/12/23 04:16:20;;;;;;;;;4.75;3.75;;;;;-146.25;100.00;57879.81;5080209;27;46213;-75
2021/12/23 04:18:47;;;;;;;;;4.00;3.33;;;;;-146.25;100.00;57879.81;5079849;27;45506;-76
2021/12/23 04:21:13;;;;;;;;;6.25;3.00;;;;;-146.25;100.00;57879.81;5079794;27;45534;-75
2021/12/23 04:23:39;;;;;;;;;4.00;4.00;;;;;-146.25;100.00;57879.81;5080071;27;45338;-76
2021/12/23 04:26:07;;;;;;;;;5.33;3.33;;;;;-146.25;100.00;57879.81;5079451;28;46152;-75
2021/12/23 04:28:35;;;;;;;;;3.00;2.67;;;;;-146.25;100.00;57879.81;5079796;28;45512;-74
2021/12/23 04:31:00;;;;;;;;;3.67;3.00;;;;;-146.25;100.00;57879.81;5079877;28;45486;-75
2021/12/23 04:33:26;;;;;;;;;4.00;4.00;;;;;-146.25;100.00;57879.81;5079628;27;45447;-76
2021/12/23 04:35:52;;;;;;;;;4.25;3.50;;;;;-146.25;100.00;57879.81;5079268;28;46152;-76
2021/12/23 04:38:17;;;;;;;;;5.00;5.00;;;;;-146.25;100.00;57879.81;5079422;27;45424;-76
2021/12/23 04:40:43;;;;;;;;;3.00;3.00;;;;;-146.25;100.00;57879.81;5079608;27;45393;-76
2021/12/23 04:43:09;;;;;;;;;3.25;3.00;;;;;-146.25;100.00;57879.81;5082540;28;45654;-76
2021/12/23 04:45:35;;;;;;;;;4.00;3.00;;;;;-146.25;100.00;57879.81;5082501;28;46611;-75
2021/12/23 04:48:00;;;;;;;;;5.00;5.00;;;;;-146.25;100.00;57879.81;5079592;27;45248;-75
2021/12/23 04:50:26;;;;;;;;;3.67;3.00;;;;;-146.25;100.00;57879.81;5079645;27;45463;-75
2021/12/23 04:52:52;;;;;;;;;4.33;4.33;;;;;-146.25;100.00;57879.81;5078689;28;45388;-74
2021/12/23 04:55:18;;;;;;;;;5.25;4.50;;;;;-146.25;100.00;57879.81;5079185;27;45544;-74
2021/12/23 04:57:44;;;;;;;;;5.75;5.75;;;;;-146.25;100.00;57879.81;5079216;27;45480;-76
2021/12/23 05:00:20;;;;;;;;;6.00;6.00;;;;;-146.25;100.00;57879.81;5079074;27;45641;-76
2021/12/23 05:02:46;;;;;;;;;4.00;3.67;;;;;-146.25;100.00;57879.81;5079379;27;45554;-75
2021/12/23 05:05:12;;;;;;;;;7.00;5.00;;;;;-146.25;100.00;57879.81;5078968;28;46187;-76
2021/12/23 05:07:38;;;;;;;;;4.00;4.00;;;;;-146.25;100.00;57879.81;5078943;27;45282;-76
2021/12/23 05:10:06;;;;;;;;;6.00;4.25;;;;;-146.25;100.00;57879.81;5079313;27;45566;-75
2021/12/23 05:12:32;;;;;;;;;7.00;6.00;;;;;-146.25;100.00;57879.81;5079322;28;45368;-76
2021/12/23 05:14:57;;;;;;;;;5.00;4.75;;;;;-146.25;100.00;57879.81;5078860;27;45442;-75
2021/12/23 05:17:23;;;;;;;;;5.00;5.00;;;;;-146.25;100.00;57879.81;5079011;28;45509;-76
2021/12/23 05:19:48;;;;;;;;;7.00;6.25;;;;;-146.25;100.00;57879.81;5079091;27;45428;-75
2021/12/23 05:22:14;;;;;;;;;6.00;5.00;;;;;-146.25;100.00;57879.81;5094845;27;45407;-75
2021/12/23 05:24:40;;;;;;;;;6.00;5.00;;;;;-146.25;100.00;57879.81;5078871;27;46037;-75
2021/12/23 05:27:05;;;;;;;;;6.00;5.00;;;;;-146.25;100.00;57879.81;5078907;27;45552;-76
2021/12/23 05:29:31;;;;;;;;;8.25;8.25;;;;;-146.25;100.00;57879.81;5078727;28;45404;-76
2021/12/23 05:31:56;;;;;;;;;4.75;4.25;;;;;-146.25;100.00;57879.81;5094831;27;45563;-75
2021/12/23 05:34:22;;;;;;;;;27.00;22.00;;;;;-146.25;100.00;57879.81;5078565;28;46270;-75
2021/12/23 05:36:47;;;;;;;;;16.00;13.00;;;;;-146.25;100.00;57879.81;5077771;28;45308;-75
2021/12/23 05:39:13;;;;;;;;;7.25;6.75;;;;;-146.25;100.00;57879.81;5078428;28;45380;-75
2021/12/23 05:41:39;;;;;;;;;7.00;7.00;;;;;-146.25;100.00;57879.81;5078680;27;45456;-75
2021/12/23 05:44:05;;;;;;;;;6.75;6.00;;;;;-146.25;100.00;57879.81;5078068;27;46017;-75
2021/12/23 05:46:31;;;;;;;;;7.00;6.25;;;;;-146.25;100.00;57879.81;5078247;27;45512;-75
2021/12/23 05:48:56;;;;;;;;;14.00;13.00;;;;;-146.25;100.00;57879.81;5077767;27;45400;-75
2021/12/23 05:51:22;;;;;;;;;6.50;6.50;;;;;-146.25;100.00;57879.81;5078422;28;45402;-76
2021/12/23 05:53:48;;;;;;;;;7.50;6.25;;;;;-146.25;100.00;57879.81;5078358;28;45595;-76
2021/12/23 05:56:13;;;;;;;;;10.50;10.00;;;;;-146.25;100.00;57879.81;5078194;27;45504;-75
2021/12/23 05:58:39;;;;;;;;;6.50;5.50;;;;;-146.25;100.00;57879.81;5076442;28;45459;-76
2021/12/23 06:01:05;;;;;;;;;9.25;6.00;;;;;-146.25;100.00;57879.81;5076583;28;45515;-75
2021/12/23 06:03:31;;;;;;;;;5.75;5.00;;;;;-146.25;100.00;57879.81;5076401;28;45905;-75
2021/12/23 06:05:56;;;;;;;;;10.25;6.00;;;;;-146.25;100.00;57879.81;5076566;27;45473;-75
2021/12/23 06:08:22;;;;;;;;;5.00;5.00;;;;;-146.25;100.00;57879.81;5076618;28;45668;-75
2021/12/23 06:10:48;;;;;;;;;4.75;4.75;;;;;-146.25;100.00;57879.81;5089949;27;45263;-75
2021/12/23 06:13:13;;;;;;;;;10.25;8.00;;;;;-146.25;100.00;57879.81;5076218;28;45467;-76
2021/12/23 06:15:39;;;;;;;;;5.25;4.75;;;;;-146.25;100.00;57879.81;5076394;27;45542;-75
2021/12/23 06:18:04;;;;;;;;;6.00;5.00;;;;;-146.25;100.00;57879.81;5076367;28;45369;-73
2021/12/23 06:20:30;;;;;;;;;6.25;6.25;;;;;-146.25;100.00;57879.81;5076650;27;45344;-74
2021/12/23 06:22:56;;;;;;;;;6.25;5.00;;;;;-146.25;100.00;57879.81;5092201;27;46901;-75
2021/12/23 06:25:21;;;;;;;;;4.00;4.00;;;;;-146.25;100.00;57879.81;5076122;27;45382;-75
2021/12/23 06:27:48;;;;;;;;;5.50;5.50;;;;;-146.25;100.00;57879.81;5076221;27;45470;-75
2021/12/23 06:32:42;;;;;;;;;5.25;4.75;;;;;-146.25;100.00;57879.81;5075615;27;46085;-75
2021/12/23 06:35:08;;;;;;;;;4.00;3.25;;;;;-146.25;100.00;57879.81;5075721;27;45510;-75
2021/12/23 06:37:34;;;;;;;;;5.00;5.00;;;;;-146.25;100.00;57879.81;5075766;27;45572;-75
2021/12/23 06:39:59;;;;;;;;;8.25;6.00;;;;;-146.25;100.00;57879.81;5076062;27;45564;-75
2021/12/23 06:42:27;;;;;;;;;6.00;5.00;;;;;-146.25;100.00;57879.81;5076005;27;46172;-75
2021/12/23 06:44:52;;;;;;;;;3.50;2.50;;;;;-146.25;100.00;57879.81;5074547;28;45336;-74
2021/12/23 06:47:18;;;;;;;;;6.00;5.25;;;;;-146.25;100.00;57879.81;5075970;27;45597;-75
2021/12/23 06:49:43;;;;;;;;;8.25;7.00;;;;;-146.25;100.00;57879.81;5075918;27;45546;-75
2021/12/23 06:52:10;;;;;;;;;5.25;5.00;;;;;-146.25;100.00;57879.81;5075848;28;46122;-76
2021/12/23 06:54:41;;;;;;;;;7.75;7.00;;;;;-146.25;100.00;57879.81;5075807;28;45552;-74
2021/12/23 06:57:07;;;;;;;;;7.00;7.00;;;;;-146.25;100.00;57879.81;5075685;27;45424;-75
2021/12/23 06:59:33;;;;;;;;;5.00;5.00;;;;;-146.25;100.00;57879.81;5075789;27;45516;-75
2021/12/23 07:01:58;;;;;;;;;12.50;11.00;;;;;-146.25;100.00;57879.81;5075669;27;45999;-75
2021/12/23 07:04:29;;;;;;;;;7.75;7.75;;;;;-146.25;100.00;57879.81;5075697;28;45381;-76
2021/12/23 07:07:24;;;;;;;;;6.25;5.75;;;;;-146.25;100.00;57879.81;5074825;28;45520;-75
2021/12/23 07:09:43;;;;;;;;;11.25;7.25;;;;;-146.25;100.00;57879.81;5074605;27;45573;-76
2021/12/23 07:12:11;;;;;;;;;6.50;6.00;;;;;-146.25;100.00;57879.81;5072393;28;46513;-75
2021/12/23 07:14:38;;;;;;;;;6.50;6.50;;;;;-146.25;100.00;57879.81;5075567;27;45437;-76
2021/12/23 07:17:05;;;;;;;;;6.00;5.00;;;;;-146.25;100.00;57879.81;5075412;27;45335;-75
2021/12/23 07:19:30;;;;;;;;;6.25;6.25;;;;;-146.25;100.00;57879.81;5075658;27;45487;-74
2021/12/23 07:21:56;;;;;;;;;6.00;6.00;;;;;-146.25;100.00;57879.81;5075378;28;45510;-75
2021/12/23 07:24:22;;;;;;;;;6.50;6.25;;;;;-146.25;100.00;57879.81;5075293;27;45326;-75
2021/12/23 07:26:48;;;;;;;;;10.75;7.00;;;;;-146.25;100.00;57879.81;5075358;27;45550;-75
2021/12/23 07:29:14;;;;;;;;;9.25;8.75;;;;;-146.25;100.00;57879.81;5075427;28;45827;-76
2021/12/23 07:31:40;;;;;;;;;9.00;6.00;;;;;-146.25;100.00;57879.81;5075145;28;46242;-77
2021/12/23 07:34:05;;;;;;;;;6.75;6.00;;;;;-146.25;100.00;57879.81;5076886;27;45467;-77
2021/12/23 07:36:31;;;;;;;;;6.00;6.00;;;;;-146.25;100.00;57879.81;5092796;27;45566;-75
2021/12/23 07:38:57;;;;;;;;;9.75;8.00;;;;;-146.25;100.00;57879.81;5077558;27;45431;-76
2021/12/23 07:41:27;;;;;;;;;10.50;9.50;;;;;-146.25;100.00;57879.81;5077249;27;46190;-77
2021/12/23 07:44:06;;;;;;;;;8.25;7.00;;;;;-146.25;100.00;57879.81;5078381;28;45398;-77
2021/12/23 07:46:34;;;;;;;;;41.50;34.50;;;;;-146.25;100.00;57879.81;5078957;28;45386;-78
2021/12/23 07:49:00;;;;;;;;;17.75;14.25;;;;;-146.25;100.00;57879.81;5078585;27;45295;-75
2021/12/23 07:51:26;;;;;;;;;7.00;6.25;;;;;-146.25;100.00;57879.81;5076941;28;46174;-75
2021/12/23 07:53:55;;;;;;;;;5.50;4.50;;;;;-146.25;100.00;57879.81;5076379;28;45425;-76
2021/12/23 07:56:23;;;;;;;;;5.75;4.00;;;;;-146.25;100.00;57879.81;5076715;27;45361;-76
2021/12/23 07:58:50;;;;;;;;;4.00;3.00;;;;;-146.25;100.00;57879.81;5076811;27;45479;-75
2021/12/23 08:01:16;;;;;;;;;5.00;4.75;;;;;-146.25;100.00;57879.81;5073440;27;45366;-74
2021/12/23 08:03:41;;;;;;;;;4.50;4.50;;;;;-146.25;100.00;57879.81;5057309;28;45603;-73
2021/12/23 08:06:07;;;;;;;;;21.00;16.75;;;;;-146.25;100.00;57879.81;5063799;28;45535;-74
2021/12/23 08:08:32;;;;;;;;;7.00;6.50;;;;;-146.25;100.00;57879.81;5071600;27;45353;-73
2021/12/23 08:10:58;;;;;;;;;5.50;5.00;;;;;-146.25;100.00;57879.81;5056359;28;45557;-74
2021/12/23 08:13:23;;;;;;;;;4.00;4.00;;;;;-146.25;100.00;57879.81;5058692;28;45672;-74
2021/12/23 08:15:49;;;;;;;;;4.50;4.25;;;;;-146.25;100.00;57879.81;5058676;28;45579;-73
2021/12/23 08:18:15;;;;;;;;;6.50;5.75;;;;;-146.25;100.00;57879.81;5058969;28;45416;-74
2021/12/23 08:20:41;;;;;;;;;5.25;4.75;;;;;-146.25;100.00;57879.81;5058708;28;46698;-74
2021/12/23 08:23:07;;;;;;;;;6.00;5.00;;;;;-146.25;100.00;57879.81;5058374;28;45809;-73
2021/12/23 08:25:33;;;;;;;;;7.25;6.00;;;;;-146.25;100.00;57879.81;5058276;28;45592;-74
2021/12/23 08:27:58;;;;;;;;;7.25;6.75;;;;;-146.25;100.00;57879.81;5058861;28;45393;-75
2021/12/23 08:30:24;;;;;;;;;5.00;5.00;;;;;-146.25;100.00;57879.81;5058086;28;45504;-76
2021/12/23 08:32:50;;;;;;;;;5.75;5.00;;;;;-146.25;100.00;57879.81;5059884;28;45406;-77
2021/12/23 08:35:18;;;;;;;;;4.33;4.00;;;;;-146.25;100.00;57879.81;5059455;28;45170;-78
2021/12/23 08:37:47;;;;;;;;;5.50;4.50;;;;;-146.25;100.00;57879.81;5059301;28;45464;-76
2021/12/23 08:40:21;;;;;;;;;6.00;5.75;;;;;-146.25;100.00;57879.81;5062466;28;46273;-75
2021/12/23 08:42:48;;;;;;;;;4.25;4.25;;;;;-146.25;100.00;57879.81;5058917;28;45512;-80
2021/12/23 08:45:14;;;;;;;;;7.75;7.75;;;;;-146.25;100.00;57879.81;5059222;28;45455;-78
2021/12/23 08:47:46;;;;;;;;;5.00;4.25;;;;;-146.25;100.00;57879.81;5075141;28;45448;-78
2021/12/23 08:50:14;;;;;;;;;8.00;8.00;;;;;-146.25;100.00;57879.81;5060015;28;45577;-78
2021/12/23 08:52:40;;;;;;;;;13.75;11.50;;;;;-146.25;100.00;57879.81;5058902;28;45385;-79
2021/12/23 08:55:08;;;;;;;;;6.50;6.50;;;;;-146.25;100.00;57879.81;5059381;28;45470;-79
2021/12/23 08:57:34;;;;;;;;;6.00;6.00;;;;;-146.25;100.00;57879.81;5059646;28;45461;-74
2021/12/23 08:59:59;;;;;;;;;7.67;7.00;;;;;-146.25;100.00;57879.81;5059651;28;45330;-75
2021/12/23 09:02:26;;;;;;;;;5.33;4.67;;;;;-146.25;100.00;57879.81;5058917;28;45325;-78
2021/12/23 09:04:51;;;;;;;;;7.00;6.67;;;;;-146.25;100.00;57879.81;5058947;28;45305;-77
2021/12/23 09:07:17;;;;;;;;;6.33;6.00;;;;;-146.25;100.00;57879.81;5059063;28;45511;-77
2021/12/23 09:09:46;;;;;;;;;4.00;4.00;;;;;-146.25;100.00;57879.81;5059054;28;46330;-78
2021/12/23 09:12:12;;;;;;;;;4.00;4.00;;;;;-146.25;100.00;57879.81;5058979;28;45362;-78
2021/12/23 09:14:38;;;;;;;;;4.00;4.00;;;;;-146.25;100.00;57879.81;5057596;28;45555;-77
2021/12/23 09:17:03;;;;;;;;;3.67;3.00;;;;;-146.25;100.00;57879.81;5059483;28;45327;-77
2021/12/23 09:19:30;;;;;;;;;4.67;4.67;;;;;-146.25;100.00;57879.81;5074616;28;45319;-78
2021/12/23 09:21:56;;;;;;;;;4.00;4.00;;;;;-146.25;100.00;57879.81;5059026;28;45445;-78
2021/12/23 09:24:22;;;;;;;;;4.33;4.00;;;;;-146.25;100.00;57879.81;5058455;28;45422;-78
2021/12/23 09:27:01;;;;;;;;;5.33;5.00;;;;;-146.25;100.00;57879.81;5058992;28;45336;-78
2021/12/23 09:34:47;;;;;;;;;3.33;3.00;;;;;-146.25;100.00;57879.81;5060648;28;45363;-79
2021/12/23 09:37:13;;;;;;;;;4.00;3.67;;;;;-146.25;100.00;57879.81;5059382;28;45469;-79
2021/12/23 09:39:39;;;;;;;;;9.33;7.67;;;;;-146.25;100.00;57879.81;5058648;28;45952;-78
2021/12/23 09:42:05;;;;;;;;;4.33;3.33;;;;;-146.25;100.00;57879.81;5059382;28;45315;-79
2021/12/23 09:44:31;;;;;;;;;6.00;5.33;;;;;-146.25;100.00;57879.81;5058612;28;45520;-78
2021/12/23 09:47:02;;;;;;;;;4.00;4.00;;;;;-146.25;100.00;57879.81;5059817;28;45306;-79
2021/12/23 09:49:29;;;;;;;;;4.00;4.00;;;;;-146.25;100.00;57879.81;5058508;28;46157;-77
2021/12/23 09:51:56;;;;;;;;;3.00;3.00;;;;;-146.25;100.00;57879.81;5059277;28;45290;-79
2021/12/23 09:54:25;;;;;;;;;2.33;2.00;;;;;-146.25;100.00;57879.81;5058701;28;45315;-76
2021/12/23 09:56:53;;;;;;;;;3.67;3.00;;;;;-146.25;100.00;57879.81;5061215;28;45366;-79
2021/12/23 09:59:21;;;;;;;;;3.67;3.67;;;;;-146.25;100.00;57879.81;5059682;28;46114;-79
2021/12/23 10:01:46;;;;;;;;;3.33;2.67;;;;;-146.25;100.00;57879.81;5058600;28;45280;-79
2021/12/23 10:04:12;;;;;;;;;4.00;3.00;;;;;-146.25;100.00;57879.81;5058534;28;45523;-79
2021/12/23 10:06:38;;;;;;;;;2.00;2.00;;;;;-146.25;100.00;57879.81;5059106;28;45494;-76
2021/12/23 10:09:04;;;;;;;;;3.67;3.00;;;;;-146.25;100.00;57879.81;5059007;28;45414;-80
2021/12/23 10:12:09;;;;;;;;;3.00;3.00;;;;;-146.25;100.00;57879.81;5058121;28;45513;-75
2021/12/23 10:31:19;;;;;;;;;5.67;5.00;;;;;-146.25;100.00;57879.81;5057339;28;45509;-79
2021/12/23 10:37:04;;;;;;;;;3.00;2.33;;;;;-146.25;100.00;57879.81;5057590;28;45536;-78
2021/12/23 10:39:23;;;;;;;;;2.33;2.33;;;;;-146.25;100.00;57879.81;5058521;28;45479;-76
2021/12/23 10:41:49;;;;;;;;;3.00;3.00;;;;;-146.25;100.00;57879.81;5058397;28;45841;-78
2021/12/23 10:44:28;;;;;;;;;4.00;3.00;;;;;-146.25;100.00;57879.81;5057188;28;45560;-79
2021/12/23 10:46:54;;;;;;;;;3.67;3.00;;;;;-146.25;100.00;57879.81;5057533;28;45292;-75
2021/12/23 10:49:33;;;;;;;;;3.67;3.00;;;;;-146.25;100.00;57879.81;5057700;28;45493;-79
2021/12/23 10:52:07;;;;;;;;;4.33;4.33;;;;;-146.25;100.00;57879.81;5059182;28;46171;-79
2021/12/23 11:00:32;;;;;;;;;3.33;3.33;;;;;-146.25;100.00;57879.81;5058049;28;45620;-78
2021/12/23 11:03:10;;;;;;;;;4.00;4.00;;;;;-146.25;100.00;57879.81;5054784;28;46058;-79
2021/12/23 11:05:42;;;;;;;;;2.67;2.67;;;;;-146.25;100.00;57879.81;5059341;28;45511;-78
2021/12/23 11:08:21;;;;;;;;;7.00;6.00;;;;;-146.25;100.00;57879.81;5057598;28;45366;-79
2021/12/23 11:43:52;;;;;;;;;3.33;3.33;;;;;-146.25;100.00;57879.81;5057128;28;45434;-75
2021/12/23 11:46:27;;;;;;;;;16.00;14.33;;;;;-146.25;100.00;57879.81;5058417;28;45508;-79
2021/12/23 11:48:56;;;;;;;;;8.00;6.00;;;;;-146.25;100.00;57879.81;5060485;28;45259;-80
2021/12/23 11:53:57;;;;;;;;;3.33;3.33;;;;;-146.25;100.00;57879.81;5060701;28;45631;-81
2021/12/23 11:56:25;;;;;;;;;2.00;2.00;;;;;-146.25;100.00;57879.81;5060481;28;46323;-78
2021/12/23 11:58:55;;;;;;;;;3.33;3.00;;;;;-146.25;100.00;57879.81;5075465;28;45617;-81
2021/12/23 12:01:28;;;;;;;;;3.33;3.33;;;;;-146.25;100.00;57879.81;5060445;28;45503;-78
2021/12/23 12:04:04;;;;;;;;;2.00;2.00;;;;;-146.25;100.00;57879.81;5061190;28;45572;-81
2021/12/23 12:06:43;;;;;;;;;2.67;2.67;;;;;-146.25;100.00;57879.81;5059675;28;46212;-81
2021/12/23 12:09:17;;;;;;;;;2.00;2.00;;;;;-146.25;100.00;57879.81;5059996;28;45373;-77
2021/12/23 12:12:08;;;;;;;;;3.00;2.00;;;;;-146.25;100.00;57879.81;5060303;28;45321;-81
2021/12/23 12:14:42;;;;;;;;;2.33;2.00;;;;;-146.25;100.00;57879.81;5057016;28;45651;-81
2021/12/23 12:17:23;;;;;;;;;3.00;2.33;;;;;-146.25;100.00;57879.81;5059315;28;45413;-79
2021/12/23 12:19:53;;;;;;;;;2.00;2.00;;;;;-146.25;100.00;57879.81;5059634;28;45513;-78
2021/12/23 12:22:56;;;;;;;;;2.00;2.00;;;;;-146.25;100.00;57879.81;5059614;28;45583;-76
2021/12/23 12:25:24;;;;;;;;;14.00;13.33;;;;;-146.25;100.00;57879.81;5075143;28;45294;-80
2021/12/23 12:28:11;;;;;;;;;2.33;2.33;;;;;-146.25;100.00;57879.81;5059703;28;46053;-78